createdAt,value
2022-08-19T00:01:45.549Z,28.72
2022-08-19T00:04:25.359Z,28.71
2022-08-19T00:06:52.714Z,28.99
2022-08-19T00:09:21.630Z,28.93
2022-08-19T00:11:48.801Z,28.84
2022-08-19T00:14:17.479Z,28.65
2022-08-19T00:16:46.499Z,28.88
2022-08-19T00:19:13.622Z,28.68
2022-08-19T00:21:40.818Z,28.42
2022-08-19T00:24:13.099Z,28.82
2022-08-19T00:26:40.593Z,29.06
2022-08-19T00:29:08.946Z,28.19
2022-08-19T00:31:35.645Z,28.21
2022-08-19T00:34:02.540Z,28.35
2022-08-19T00:36:29.964Z,28.58
2022-08-19T00:38:57.126Z,28.64
2022-08-19T00:41:25.306Z,28.89
2022-08-19T00:44:00.569Z,28.95
2022-08-19T00:46:28.496Z,28.62
2022-08-19T00:48:57.650Z,28.47
2022-08-19T00:51:27.569Z,28.76
2022-08-19T00:53:58.038Z,28.15
2022-08-19T00:56:25.627Z,27.76
2022-08-19T00:58:52.418Z,28.57
2022-08-19T01:01:19.094Z,28.63
2022-08-19T01:03:57.104Z,28.26
2022-08-19T01:06:27.719Z,28.28
2022-08-19T01:08:56.107Z,27.94
2022-08-19T01:11:22.949Z,28.17
2022-08-19T01:13:50.733Z,28.61
2022-08-19T01:16:19.967Z,28.48
2022-08-19T01:18:46.781Z,28.35
2022-08-19T01:24:52.788Z,27.72
2022-08-19T01:27:22.267Z,27.92
2022-08-19T01:29:49.074Z,28.13
2022-08-19T01:32:32.053Z,28.38
2022-08-19T01:35:02.962Z,28.31
2022-08-19T01:37:31.709Z,28.56
2022-08-19T01:39:58.630Z,27.88
2022-08-19T01:42:30.151Z,28.18
2022-08-19T01:44:57.890Z,28.20
2022-08-19T01:47:24.510Z,28.33
2022-08-19T01:49:51.105Z,28.21
2022-08-19T01:52:17.771Z,28.29
2022-08-19T01:54:44.397Z,27.55
2022-08-19T01:57:14.931Z,27.69
2022-08-19T01:59:43.832Z,27.83
2022-08-19T02:02:10.683Z,27.96
2022-08-19T02:04:41.437Z,28.14
2022-08-19T02:07:09.294Z,27.77
2022-08-19T02:09:36.726Z,27.85
2022-08-19T02:12:04.521Z,27.61
2022-08-19T02:14:31.199Z,27.82
2022-08-19T02:16:57.786Z,27.55
2022-08-19T02:19:24.374Z,27.19
2022-08-19T02:21:51.055Z,27.35
2022-08-19T02:24:36.079Z,27.31
2022-08-19T02:27:02.734Z,26.67
2022-08-19T02:29:29.425Z,27.51
2022-08-19T02:31:57.484Z,27.88
2022-08-19T02:34:25.904Z,27.49
2022-08-19T02:36:53.962Z,26.73
2022-08-19T02:39:20.618Z,27.11
2022-08-19T02:42:06.788Z,27.49
2022-08-19T02:44:43.273Z,27.28
2022-08-19T02:47:10.967Z,26.72
2022-08-19T02:49:37.766Z,27.06
2022-08-19T02:52:04.465Z,27.42
2022-08-19T02:54:31.337Z,26.95
2022-08-19T02:56:58.021Z,26.75
2022-08-19T02:59:25.774Z,27.63
2022-08-19T03:01:52.387Z,27.27
2022-08-19T03:04:20.489Z,27.46
2022-08-19T03:06:48.286Z,26.79
2022-08-19T03:09:15.399Z,27.12
2022-08-19T03:11:42.287Z,27.42
2022-08-19T03:14:15.435Z,27.54
2022-08-19T03:16:45.928Z,26.90
2022-08-19T03:19:13.629Z,26.71
2022-08-19T03:21:40.655Z,26.52
2022-08-19T03:24:09.654Z,26.70
2022-08-19T03:26:40.599Z,26.65
2022-08-19T03:29:15.459Z,26.88
2022-08-19T03:32:32.845Z,26.57
2022-08-19T03:35:09.169Z,26.63
2022-08-19T03:37:35.981Z,26.40
2022-08-19T03:40:05.023Z,26.98
2022-08-19T03:42:45.485Z,26.54
2022-08-19T03:45:15.750Z,26.83
2022-08-19T03:47:42.369Z,27.19
2022-08-19T03:50:14.259Z,26.98
2022-08-19T03:52:40.922Z,26.90
2022-08-19T03:55:12.377Z,26.82
2022-08-19T03:57:38.961Z,27.14
2022-08-19T04:00:13.499Z,27.16
2022-08-19T04:02:42.949Z,27.18
2022-08-19T04:05:54.899Z,26.37
2022-08-19T04:08:27.979Z,26.88
2022-08-19T04:10:55.089Z,27.12
2022-08-19T04:13:22.388Z,26.92
2022-08-19T04:15:49.037Z,27.11
2022-08-19T04:18:15.691Z,27.12
2022-08-19T04:20:47.705Z,26.82
2022-08-19T04:23:16.182Z,27.04
2022-08-19T04:25:44.761Z,26.65
2022-08-19T04:28:13.438Z,26.70
2022-08-19T04:30:45.398Z,26.55
2022-08-19T04:33:14.204Z,27.03
2022-08-19T04:35:42.910Z,26.66
2022-08-19T04:38:23.428Z,26.91
2022-08-19T04:41:46.106Z,26.40
2022-08-19T04:44:14.786Z,27.15
2022-08-19T04:46:50.890Z,27.07
2022-08-19T04:49:21.087Z,26.58
2022-08-19T04:51:48.760Z,26.79
2022-08-19T04:54:28.795Z,26.88
2022-08-19T04:57:04.564Z,26.87
2022-08-19T04:59:31.230Z,27.14
2022-08-19T05:01:57.818Z,27.08
2022-08-19T05:04:24.424Z,26.93
2022-08-19T05:06:51.655Z,26.85
2022-08-19T05:09:18.596Z,27.25
2022-08-19T05:11:45.759Z,27.16
2022-08-19T05:14:13.887Z,27.28
2022-08-19T05:16:41.818Z,27.19
2022-08-19T05:19:27.445Z,26.82
2022-08-19T05:22:13.427Z,27.02
2022-08-19T05:24:56.407Z,27.15
2022-08-19T05:27:34.908Z,26.71
2022-08-19T05:30:02.563Z,26.67
2022-08-19T05:32:29.379Z,27.02
2022-08-19T05:34:56.429Z,27.04
2022-08-19T05:37:23.334Z,27.07
2022-08-19T05:39:51.681Z,26.82
2022-08-19T05:42:19.885Z,27.28
2022-08-19T05:44:58.958Z,27.14
2022-08-19T05:47:44.049Z,26.65
2022-08-19T05:50:10.770Z,26.66
2022-08-19T05:52:39.328Z,26.54
2022-08-19T05:55:12.774Z,27.21
2022-08-19T05:57:40.323Z,27.49
2022-08-19T06:00:12.220Z,27.30
2022-08-19T06:02:39.466Z,27.22
2022-08-19T06:05:09.898Z,27.58
2022-08-19T06:07:38.290Z,27.92
2022-08-19T06:10:08.282Z,28.06
2022-08-19T06:12:35.953Z,28.47
2022-08-19T06:15:12.118Z,28.11
2022-08-19T06:17:39.141Z,28.18
2022-08-19T06:20:09.784Z,27.94
2022-08-19T06:22:44.798Z,27.95
2022-08-19T06:25:14.048Z,27.92
2022-08-19T06:27:58.684Z,27.74
2022-08-19T06:30:28.686Z,28.10
2022-08-19T06:32:55.293Z,28.07
2022-08-19T06:35:22.030Z,28.23
2022-08-19T06:37:48.855Z,28.69
2022-08-19T06:40:15.600Z,28.71
2022-08-19T06:42:43.265Z,28.94
2022-08-19T06:45:21.506Z,29.04
2022-08-19T06:47:55.310Z,28.60
2022-08-19T06:50:26.275Z,29.07
2022-08-19T06:52:53.373Z,29.54
2022-08-19T06:55:21.087Z,29.60
2022-08-19T06:57:54.253Z,29.69
2022-08-19T07:00:21.508Z,29.85
2022-08-19T07:02:53.285Z,29.65
2022-08-19T07:05:24.448Z,29.95
2022-08-19T07:07:51.283Z,29.52
2022-08-19T07:10:18.736Z,30.03
2022-08-19T07:12:45.745Z,30.04
2022-08-19T07:15:12.987Z,30.15
2022-08-19T07:17:42.221Z,30.59
2022-08-19T07:20:10.372Z,31.06
2022-08-19T07:22:41.049Z,31.29
2022-08-19T07:25:10.423Z,31.06
2022-08-19T07:27:39.531Z,31.54
2022-08-19T07:30:12.040Z,31.60
2022-08-19T07:32:39.395Z,31.80
2022-08-19T07:35:07.151Z,31.59
2022-08-19T07:37:34.767Z,31.64
2022-08-19T07:40:02.467Z,31.18
2022-08-19T07:42:31.723Z,31.43
2022-08-19T07:44:59.805Z,31.83
2022-08-19T07:47:58.578Z,31.84
2022-08-19T07:50:15.203Z,31.33
2022-08-19T07:52:41.942Z,31.61
2022-08-19T07:55:39.842Z,31.35
2022-08-19T07:57:58.017Z,31.43
2022-08-19T08:00:25.023Z,32.27
2022-08-19T08:02:55.205Z,32.24
2022-08-19T08:05:44.050Z,32.62
2022-08-19T08:08:32.033Z,32.74
2022-08-19T08:11:01.768Z,32.62
2022-08-19T08:13:29.093Z,32.70
2022-08-19T08:15:57.035Z,32.41
2022-08-19T08:18:27.580Z,33.00
2022-08-19T08:20:55.946Z,32.50
2022-08-19T08:23:23.299Z,33.31
2022-08-19T08:25:50.630Z,32.90
2022-08-19T08:28:18.580Z,33.18
2022-08-19T08:30:48.472Z,32.46
2022-08-19T08:33:33.070Z,32.44
2022-08-19T08:36:00.085Z,33.03
2022-08-19T08:38:26.704Z,33.28
2022-08-19T08:41:07.394Z,33.25
2022-08-19T08:43:44.106Z,32.84
2022-08-19T08:46:31.493Z,32.55
2022-08-19T08:49:08.438Z,33.49
2022-08-19T08:51:44.189Z,33.36
2022-08-19T08:54:16.481Z,33.33
2022-08-19T08:56:45.899Z,33.44
2022-08-19T08:59:33.377Z,33.77
2022-08-19T09:02:01.052Z,34.07
2022-08-19T09:04:29.148Z,34.03
2022-08-19T09:07:01.421Z,34.36
2022-08-19T09:09:49.677Z,34.11
2022-08-19T09:12:39.951Z,33.68
2022-08-19T09:15:13.030Z,34.15
2022-08-19T09:17:39.802Z,34.33
2022-08-19T09:20:26.106Z,34.31
2022-08-19T09:22:53.101Z,34.69
2022-08-19T09:25:26.653Z,34.82
2022-08-19T09:28:05.510Z,34.78
2022-08-19T09:30:40.239Z,34.93
2022-08-19T09:33:07.436Z,34.87
2022-08-19T09:35:50.149Z,34.88
2022-08-19T09:38:20.131Z,34.71
2022-08-19T09:40:46.802Z,34.43
2022-08-19T09:43:13.667Z,34.40
2022-08-19T09:45:40.851Z,34.37
2022-08-19T09:48:07.573Z,34.52
2022-08-19T09:50:51.270Z,34.59
2022-08-19T09:53:19.292Z,34.76
2022-08-19T09:55:46.039Z,35.07
2022-08-19T09:58:12.950Z,35.45
2022-08-19T10:00:40.170Z,34.91
2022-08-19T10:03:07.093Z,35.38
2022-08-19T10:05:54.627Z,34.70
2022-08-19T10:08:27.471Z,35.04
2022-08-19T10:10:55.898Z,34.80
2022-08-19T10:13:25.981Z,35.49
2022-08-19T10:15:58.043Z,35.02
2022-08-19T10:18:26.405Z,35.61
2022-08-19T10:21:02.421Z,35.88
2022-08-19T10:23:30.605Z,36.27
2022-08-19T10:26:06.240Z,35.97
2022-08-19T10:28:40.085Z,36.00
2022-08-19T10:31:13.751Z,36.46
2022-08-19T10:33:53.325Z,36.68
2022-08-19T10:36:23.636Z,36.57
2022-08-19T10:38:56.703Z,36.61
2022-08-19T10:41:26.895Z,35.92
2022-08-19T10:44:04.336Z,36.17
2022-08-19T10:46:34.902Z,36.65
2022-08-19T10:49:03.185Z,36.69
2022-08-19T10:51:48.783Z,36.51
2022-08-19T10:54:17.096Z,37.24
2022-08-19T10:56:57.703Z,36.97
2022-08-19T10:59:35.317Z,37.30
2022-08-19T11:02:05.401Z,37.10
2022-08-19T11:04:32.982Z,37.11
2022-08-19T11:06:59.868Z,37.39
2022-08-19T11:09:34.053Z,37.20
2022-08-19T11:12:03.053Z,37.32
2022-08-19T11:14:33.970Z,37.37
2022-08-19T11:17:02.068Z,37.62
2022-08-19T11:19:28.744Z,37.14
2022-08-19T11:21:57.606Z,37.42
2022-08-19T11:24:28.508Z,37.66
2022-08-19T11:27:01.196Z,37.61
2022-08-19T11:29:28.892Z,37.74
2022-08-19T11:31:56.039Z,37.79
2022-08-19T11:34:26.273Z,37.13
2022-08-19T11:36:59.473Z,37.23
2022-08-19T11:39:29.337Z,37.68
2022-08-19T11:41:57.155Z,37.96
2022-08-19T11:44:23.861Z,37.54
2022-08-19T11:47:14.596Z,38.04
2022-08-19T11:49:41.207Z,37.83
2022-08-19T11:52:08.519Z,37.20
2022-08-19T11:54:35.155Z,37.22
2022-08-19T11:57:04.615Z,37.71
2022-08-19T11:59:31.361Z,37.65
2022-08-19T12:01:59.380Z,37.22
2022-08-19T12:04:57.160Z,37.38
2022-08-19T12:07:34.170Z,37.78
2022-08-19T12:10:01.668Z,38.10
2022-08-19T12:12:30.405Z,37.74
2022-08-19T12:14:59.241Z,37.88
2022-08-19T12:17:27.950Z,37.90
2022-08-19T12:19:54.982Z,37.99
2022-08-19T12:22:22.362Z,38.35
2022-08-19T12:24:51.208Z,38.63
2022-08-19T12:27:32.320Z,38.31
2022-08-19T12:30:06.332Z,38.57
2022-08-19T12:32:33.556Z,38.85
2022-08-19T12:35:00.217Z,39.00
2022-08-19T12:37:26.867Z,38.97
2022-08-19T12:39:53.552Z,38.88
2022-08-19T12:42:20.450Z,38.92
2022-08-19T12:44:47.037Z,38.58
2022-08-19T12:47:18.230Z,38.73
2022-08-19T12:49:53.407Z,38.61
2022-08-19T12:52:23.518Z,38.35
2022-08-19T12:54:53.680Z,38.32
2022-08-19T12:57:22.257Z,38.72
2022-08-19T12:59:55.730Z,38.79
2022-08-19T13:02:23.468Z,38.80
2022-08-19T13:04:50.083Z,38.51
2022-08-19T13:07:16.689Z,38.49
2022-08-19T13:09:43.648Z,38.90
2022-08-19T13:12:13.978Z,39.10
2022-08-19T13:14:41.531Z,39.01
2022-08-19T13:17:09.255Z,38.54
2022-08-19T13:19:38.009Z,38.56
2022-08-19T13:22:04.716Z,38.60
2022-08-19T13:24:41.949Z,38.51
2022-08-19T13:27:12.007Z,38.18
2022-08-19T13:29:59.428Z,38.21
2022-08-19T13:32:44.878Z,38.27
2022-08-19T13:35:16.559Z,37.60
2022-08-19T13:37:43.913Z,37.57
2022-08-19T13:40:20.043Z,37.49
2022-08-19T13:42:48.796Z,37.86
2022-08-19T13:45:20.937Z,37.92
2022-08-19T13:47:49.778Z,38.04
2022-08-19T13:50:19.649Z,37.83
2022-08-19T13:52:48.376Z,37.88
2022-08-19T13:55:16.475Z,37.57
2022-08-19T13:57:53.921Z,36.98
2022-08-19T14:00:22.230Z,36.72
2022-08-19T14:02:52.553Z,35.91
2022-08-19T14:05:19.909Z,35.32
2022-08-19T14:07:46.676Z,35.68
2022-08-19T14:10:14.177Z,35.06
2022-08-19T14:12:41.215Z,34.70
2022-08-19T14:15:10.614Z,34.72
2022-08-19T14:17:41.552Z,34.60
2022-08-19T14:20:11.372Z,34.41
2022-08-19T14:25:26.038Z,34.30
2022-08-19T14:27:53.212Z,33.90
2022-08-19T14:30:28.570Z,34.01
2022-08-19T14:35:31.332Z,34.13
2022-08-19T14:37:58.974Z,34.10
2022-08-19T14:40:28.847Z,34.35
2022-08-19T14:43:05.211Z,33.70
2022-08-19T14:48:18.982Z,33.39
2022-08-19T14:50:46.795Z,33.48
2022-08-19T14:53:13.592Z,33.46
2022-08-19T14:55:44.465Z,33.32
2022-08-19T14:58:29.042Z,33.26
2022-08-19T15:03:35.554Z,32.70
2022-08-19T15:06:04.949Z,33.11
2022-08-19T15:08:33.456Z,33.63
2022-08-19T15:11:00.469Z,33.69
2022-08-19T15:13:29.890Z,33.73
2022-08-19T15:15:58.065Z,33.39
2022-08-19T15:18:25.090Z,33.65
2022-08-19T15:20:51.981Z,33.52
2022-08-19T15:23:24.370Z,33.51
2022-08-19T15:25:55.733Z,33.21
2022-08-19T15:28:25.378Z,33.41
2022-08-19T15:30:53.063Z,33.55
2022-08-19T15:33:21.175Z,33.42
2022-08-19T15:35:50.958Z,33.27
2022-08-19T15:38:46.180Z,33.05
2022-08-19T15:41:25.043Z,32.72
2022-08-19T15:43:56.023Z,32.81
2022-08-19T15:46:25.769Z,32.78
2022-08-19T15:48:55.957Z,33.01
2022-08-19T15:51:24.032Z,32.75
2022-08-19T15:53:51.504Z,32.79
2022-08-19T15:56:18.138Z,32.70
2022-08-19T15:59:03.713Z,32.64
2022-08-19T16:01:49.063Z,32.50
2022-08-19T16:04:34.952Z,32.66
2022-08-19T16:07:03.429Z,32.76
2022-08-19T16:09:31.792Z,32.50
2022-08-19T16:12:02.423Z,32.75
2022-08-19T16:14:31.814Z,32.55
2022-08-19T16:16:58.519Z,32.63
2022-08-19T16:19:25.706Z,32.69
2022-08-19T16:21:54.134Z,32.94
2022-08-19T16:24:23.614Z,32.90
2022-08-19T16:26:55.252Z,32.96
2022-08-19T16:29:34.683Z,32.97
2022-08-19T16:32:12.885Z,32.99
2022-08-19T16:34:41.509Z,33.19
2022-08-19T16:37:09.636Z,33.09
2022-08-19T16:39:37.160Z,33.01
2022-08-19T16:42:14.070Z,32.98
2022-08-19T16:44:54.581Z,33.00
2022-08-19T16:47:24.266Z,32.99
2022-08-19T16:49:53.708Z,32.87
2022-08-19T16:52:27.029Z,32.92
2022-08-19T16:54:54.607Z,32.60
2022-08-19T16:57:23.793Z,32.57
2022-08-19T16:59:52.340Z,32.47
2022-08-19T17:02:22.479Z,32.26
2022-08-19T17:04:55.729Z,32.03
2022-08-19T17:07:24.496Z,31.83
2022-08-19T17:09:51.083Z,31.65
2022-08-19T17:12:17.718Z,31.62
2022-08-19T17:14:46.084Z,30.93
2022-08-19T17:17:12.886Z,31.12
2022-08-19T17:19:41.892Z,30.73
2022-08-19T17:22:10.210Z,30.73
2022-08-19T17:24:38.416Z,30.79
2022-08-19T17:27:08.134Z,30.61
2022-08-19T17:29:34.914Z,30.29
2022-08-19T17:32:02.304Z,30.04
2022-08-19T17:34:28.991Z,30.06
2022-08-19T17:36:57.157Z,29.65
2022-08-19T17:39:25.344Z,30.10
2022-08-19T17:41:52.081Z,30.11
2022-08-19T17:44:19.287Z,30.19
2022-08-19T17:46:46.821Z,30.53
2022-08-19T17:49:13.855Z,30.34
2022-08-19T17:51:44.971Z,30.52
2022-08-19T17:54:15.715Z,30.21
2022-08-19T17:56:43.240Z,30.18
2022-08-19T17:59:13.909Z,29.72
2022-08-19T18:01:51.998Z,29.84
2022-08-19T18:04:20.799Z,29.31
2022-08-19T18:06:53.036Z,29.78
2022-08-19T18:09:23.813Z,30.18
2022-08-19T18:11:53.055Z,30.14
2022-08-19T18:14:32.234Z,30.15
2022-08-19T18:17:05.448Z,29.92
2022-08-19T18:19:40.823Z,30.07
2022-08-19T18:22:08.741Z,30.04
2022-08-19T18:24:39.191Z,29.96
2022-08-19T18:27:06.993Z,29.12
2022-08-19T18:29:34.140Z,28.92
2022-08-19T18:32:00.771Z,28.81
2022-08-19T18:34:27.595Z,29.12
2022-08-19T18:36:54.368Z,29.21
2022-08-19T18:39:39.991Z,29.13
2022-08-19T18:42:37.191Z,29.12
2022-08-19T18:45:24.568Z,28.97
2022-08-19T18:48:25.832Z,28.50
2022-08-19T18:50:55.554Z,28.19
2022-08-19T18:53:22.194Z,27.76
2022-08-19T18:55:51.925Z,27.29
2022-08-19T18:58:18.595Z,27.01
2022-08-19T19:00:45.406Z,26.53
2022-08-19T19:03:12.018Z,26.19
2022-08-19T19:05:40.006Z,26.00
2022-08-19T19:08:07.719Z,25.63
2022-08-19T19:10:36.308Z,25.43
2022-08-19T19:13:02.941Z,25.21
2022-08-19T19:15:29.578Z,25.13
2022-08-19T19:17:56.438Z,25.10
2022-08-19T19:20:36.673Z,25.17
2022-08-19T19:23:03.972Z,25.08
2022-08-19T19:25:50.589Z,24.39
2022-08-19T19:28:23.914Z,24.83
2022-08-19T19:30:51.426Z,23.92
2022-08-19T19:33:18.271Z,22.71
2022-08-19T19:35:47.285Z,23.29
2022-08-19T19:38:14.387Z,22.64
2022-08-19T19:40:41.185Z,22.58
2022-08-19T19:43:08.347Z,22.62
2022-08-19T19:45:35.092Z,22.25
2022-08-19T19:48:01.745Z,22.24
2022-08-19T19:50:30.224Z,22.34
2022-08-19T19:52:57.570Z,22.29
2022-08-19T19:55:26.520Z,22.50
2022-08-19T19:57:53.895Z,22.17
2022-08-19T20:00:21.028Z,22.38
2022-08-19T20:02:50.357Z,22.74
2022-08-19T20:05:20.860Z,22.13
2022-08-19T20:08:06.804Z,21.96
2022-08-19T20:10:33.811Z,22.10
2022-08-19T20:13:04.621Z,22.14
2022-08-19T20:15:32.230Z,21.89
2022-08-19T20:18:04.762Z,21.84
2022-08-19T20:20:31.861Z,21.75
2022-08-19T20:22:58.749Z,22.27
2022-08-19T20:25:25.598Z,22.21
2022-08-19T20:27:52.362Z,22.33
2022-08-19T20:30:22.072Z,22.48
2022-08-19T20:32:50.405Z,22.45
2022-08-19T20:35:23.090Z,22.26
2022-08-19T20:37:52.895Z,22.41
2022-08-19T20:46:03.899Z,22.71
2022-08-19T20:48:56.576Z,22.90
2022-08-19T20:51:26.979Z,22.87
2022-08-19T20:53:53.748Z,22.85
2022-08-19T20:56:20.725Z,23.07
2022-08-19T20:59:00.147Z,23.05
2022-08-19T21:01:26.952Z,23.09
2022-08-19T21:03:53.641Z,23.23
2022-08-19T21:06:20.551Z,23.07
2022-08-19T21:08:49.836Z,23.09
2022-08-19T21:11:20.743Z,23.21
2022-08-19T21:13:48.355Z,23.20
2022-08-19T21:16:14.964Z,23.16
2022-08-19T21:18:41.789Z,23.03
2022-08-19T21:21:08.406Z,22.64
2022-08-19T21:23:35.248Z,22.51
2022-08-19T21:26:02.124Z,22.47
2022-08-19T21:28:35.113Z,22.13
2022-08-19T21:31:05.375Z,22.09
2022-08-19T21:33:32.982Z,22.35
2022-08-19T21:36:00.235Z,22.39
2022-08-19T21:38:27.668Z,22.44
2022-08-19T21:40:54.837Z,22.13
2022-08-19T21:43:21.828Z,21.97
2022-08-19T21:45:50.513Z,21.82
2022-08-19T21:48:17.601Z,22.14
2022-08-19T21:50:46.042Z,21.97
2022-08-19T21:53:17.830Z,21.88
2022-08-19T21:55:46.620Z,22.26
2022-08-19T21:58:19.926Z,22.12
2022-08-19T22:01:12.158Z,22.10
2022-08-19T22:03:39.979Z,22.05
2022-08-19T22:06:07.267Z,21.95
2022-08-19T22:08:33.875Z,22.42
2022-08-19T22:11:01.341Z,22.21
2022-08-19T22:13:28.153Z,21.80
2022-08-19T22:24:35.401Z,22.05
2022-08-19T22:27:05.823Z,21.88
2022-08-19T22:29:36.570Z,21.93
2022-08-19T22:32:27.121Z,21.87
2022-08-19T22:34:51.822Z,21.96
2022-08-19T22:37:18.951Z,22.12
2022-08-19T22:51:14.220Z,22.21
